createdAt,value
2022-10-24T00:01:28.083Z,99231.59
2022-10-24T00:03:55.859Z,99224.72
2022-10-24T00:06:32.800Z,99235.19
2022-10-24T00:09:16.323Z,99233.25
2022-10-24T00:11:58.899Z,99240.06
2022-10-24T00:14:27.005Z,99216.66
2022-10-24T00:16:54.707Z,99218.00
2022-10-24T00:19:24.768Z,99250.50
2022-10-24T00:21:55.557Z,99241.75
2022-10-24T00:24:26.438Z,99220.78
2022-10-24T00:26:54.273Z,99228.06
2022-10-24T00:29:21.733Z,99252.66
2022-10-24T00:31:53.004Z,99238.31
2022-10-24T00:34:23.578Z,99212.97
2022-10-24T00:36:53.325Z,99221.53
2022-10-24T00:39:23.742Z,99212.34
2022-10-24T00:42:02.519Z,99213.84
2022-10-24T00:45:19.934Z,99184.34
2022-10-24T00:47:57.277Z,99217.72
2022-10-24T00:50:26.815Z,99240.31
2022-10-24T00:52:55.633Z,99220.16
2022-10-24T00:55:26.867Z,99203.19
2022-10-24T00:58:08.824Z,99244.66
2022-10-24T01:00:41.025Z,99196.28
2022-10-24T01:03:20.217Z,99221.38
2022-10-24T01:06:24.869Z,99193.66
2022-10-24T01:09:22.429Z,99210.25
2022-10-24T01:13:02.214Z,99190.00
2022-10-24T01:16:10.740Z,99181.28
2022-10-24T01:19:18.190Z,99225.47
2022-10-24T01:22:48.254Z,99237.31
2022-10-24T01:25:43.915Z,99208.69
2022-10-24T01:28:21.491Z,99226.16
2022-10-24T01:31:30.837Z,99216.66
2022-10-24T01:34:26.753Z,99205.34
2022-10-24T01:37:15.004Z,99217.75
2022-10-24T01:39:48.891Z,99219.25
2022-10-24T01:42:25.055Z,99230.06
2022-10-24T01:45:04.731Z,99205.34
2022-10-24T01:47:42.449Z,99209.59
2022-10-24T01:50:28.724Z,99218.06
2022-10-24T01:52:58.783Z,99217.13
2022-10-24T01:55:32.399Z,99235.50
2022-10-24T01:58:02.795Z,99220.56
2022-10-24T02:00:33.013Z,99206.53
2022-10-24T02:03:24.772Z,99199.88
2022-10-24T02:06:41.197Z,99214.22
2022-10-24T02:09:26.648Z,99220.19
2022-10-24T02:12:01.883Z,99223.09
2022-10-24T02:14:38.452Z,99216.50
2022-10-24T02:17:13.716Z,99232.97
2022-10-24T02:19:59.398Z,99238.09
2022-10-24T02:22:46.169Z,99257.69
2022-10-24T02:25:23.316Z,99231.34
2022-10-24T02:28:07.323Z,99218.66
2022-10-24T02:31:17.805Z,99224.00
2022-10-24T02:45:49.627Z,99230.44
2022-10-24T02:48:40.609Z,99231.53
2022-10-24T02:53:11.796Z,99238.88
2022-10-24T02:55:13.667Z,99239.56
2022-10-24T02:58:18.286Z,99267.22
2022-10-24T03:00:50.483Z,99267.59
2022-10-24T03:03:38.455Z,99247.22
2022-10-24T03:10:26.753Z,99256.47
2022-10-24T03:13:28.698Z,99260.38
2022-10-24T03:16:35.626Z,99291.16
2022-10-24T03:20:15.443Z,99249.22
2022-10-24T03:23:27.008Z,99303.47
2022-10-24T03:26:43.614Z,99300.53
2022-10-24T03:31:06.442Z,99289.13
2022-10-24T03:32:40.287Z,99283.84
2022-10-24T03:35:38.658Z,99292.72
2022-10-24T03:38:09.539Z,99301.00
2022-10-24T03:40:38.548Z,99312.88
2022-10-24T03:43:21.300Z,99307.03
2022-10-24T03:45:53.211Z,99274.06
2022-10-24T03:48:20.426Z,99308.06
2022-10-24T03:50:50.731Z,99273.84
2022-10-24T03:53:22.097Z,99280.94
2022-10-24T03:55:49.659Z,99315.97
2022-10-24T03:58:17.562Z,99319.25
2022-10-24T04:00:44.941Z,99291.06
2022-10-24T04:03:12.527Z,99304.56
2022-10-24T04:05:40.386Z,99298.59
2022-10-24T04:08:07.671Z,99310.63
2022-10-24T04:10:35.158Z,99301.63
2022-10-24T04:13:02.965Z,99338.88
2022-10-24T04:15:33.009Z,99305.91
2022-10-24T04:18:00.337Z,99357.72
2022-10-24T04:20:28.161Z,99321.84
2022-10-24T04:22:55.786Z,99321.69
2022-10-24T04:25:23.200Z,99315.50
2022-10-24T04:27:50.688Z,99342.09
2022-10-24T04:30:17.956Z,99327.38
2022-10-24T04:32:46.202Z,99357.19
2022-10-24T04:35:14.473Z,99323.69
2022-10-24T04:37:42.496Z,99359.03
2022-10-24T04:40:10.216Z,99335.34
2022-10-24T04:42:47.891Z,99343.16
2022-10-24T04:45:15.573Z,99338.41
2022-10-24T04:47:44.260Z,99342.09
2022-10-24T04:50:11.913Z,99359.31
2022-10-24T04:52:40.791Z,99370.34
2022-10-24T04:55:08.617Z,99362.59
2022-10-24T04:57:36.020Z,99382.38
2022-10-24T05:00:04.615Z,99387.53
2022-10-24T05:02:32.019Z,99368.53
2022-10-24T05:05:02.083Z,99355.28
2022-10-24T05:07:32.353Z,99355.44
2022-10-24T05:10:00.170Z,99366.13
2022-10-24T05:12:29.779Z,99376.19
2022-10-24T05:14:57.378Z,99394.84
2022-10-24T05:17:24.813Z,99381.75
2022-10-24T05:19:52.286Z,99400.22
2022-10-24T05:22:20.820Z,99370.72
2022-10-24T05:24:48.083Z,99363.88
2022-10-24T05:27:17.712Z,99384.91
2022-10-24T05:29:45.150Z,99365.44
2022-10-24T05:32:13.647Z,99409.97
2022-10-24T05:34:48.594Z,99403.53
2022-10-24T05:37:16.955Z,99397.41
2022-10-24T05:39:47.474Z,99407.13
2022-10-24T05:42:15.068Z,99423.47
2022-10-24T05:44:42.636Z,99397.72
2022-10-24T05:47:10.017Z,99410.72
2022-10-24T05:49:37.475Z,99394.97
2022-10-24T05:52:05.458Z,99433.28
2022-10-24T05:54:42.576Z,99442.19
2022-10-24T05:57:20.293Z,99427.09
2022-10-24T05:59:47.759Z,99423.78
2022-10-24T06:02:20.623Z,99421.16
2022-10-24T06:04:48.779Z,99416.72
2022-10-24T06:07:16.168Z,99419.56
2022-10-24T06:09:43.420Z,99445.19
2022-10-24T06:12:13.736Z,99412.44
2022-10-24T06:14:41.749Z,99424.19
2022-10-24T06:17:12.274Z,99430.94
2022-10-24T06:19:40.676Z,99442.59
2022-10-24T06:22:11.997Z,99424.00
2022-10-24T06:24:39.512Z,99427.22
2022-10-24T06:27:07.520Z,99439.50
2022-10-24T06:29:35.944Z,99438.84
2022-10-24T06:32:05.313Z,99424.84
2022-10-24T06:34:32.789Z,99453.63
2022-10-24T06:37:00.418Z,99446.66
2022-10-24T06:39:27.732Z,99466.13
2022-10-24T06:42:19.920Z,99461.97
2022-10-24T06:44:47.289Z,99445.16
2022-10-24T06:47:15.642Z,99435.25
2022-10-24T06:49:42.965Z,99439.91
2022-10-24T06:52:19.506Z,99439.09
2022-10-24T06:54:46.780Z,99456.53
2022-10-24T06:57:14.233Z,99461.88
2022-10-24T06:59:41.517Z,99442.69
2022-10-24T07:02:13.306Z,99448.66
2022-10-24T07:05:50.618Z,99464.94
2022-10-24T07:07:52.348Z,99456.97
2022-10-24T07:10:19.806Z,99446.53
2022-10-24T07:12:51.111Z,99459.53
2022-10-24T07:15:21.803Z,99456.91
2022-10-24T07:17:51.717Z,99469.16
2022-10-24T07:20:19.178Z,99442.88
2022-10-24T07:22:48.329Z,99485.56
2022-10-24T07:25:19.304Z,99481.50
2022-10-24T07:27:46.851Z,99461.78
2022-10-24T07:30:18.323Z,99464.97
2022-10-24T07:32:47.135Z,99499.56
2022-10-24T07:35:15.133Z,99474.88
2022-10-24T07:37:53.887Z,99487.44
2022-10-24T07:40:21.625Z,99463.16
2022-10-24T07:42:56.817Z,99485.59
2022-10-24T07:45:30.425Z,99476.16
2022-10-24T07:48:01.097Z,99474.53
2022-10-24T07:50:29.771Z,99473.19
2022-10-24T07:52:58.742Z,99487.44
2022-10-24T07:55:33.029Z,99462.56
2022-10-24T07:58:08.328Z,99468.13
2022-10-24T08:00:38.249Z,99492.63
2022-10-24T08:03:36.878Z,99493.88
2022-10-24T08:06:09.087Z,99487.34
2022-10-24T08:08:40.449Z,99523.97
2022-10-24T08:11:18.242Z,99483.88
2022-10-24T08:13:50.142Z,99490.22
2022-10-24T08:16:21.701Z,99488.78
2022-10-24T08:18:55.666Z,99492.78
2022-10-24T08:21:24.380Z,99520.66
2022-10-24T08:23:53.913Z,99546.00
2022-10-24T08:26:26.192Z,99528.91
2022-10-24T08:28:55.927Z,99537.56
2022-10-24T08:31:26.523Z,99518.81
2022-10-24T08:33:56.523Z,99539.03
2022-10-24T08:36:30.392Z,99528.31
2022-10-24T08:38:59.321Z,99524.34
2022-10-24T08:41:43.160Z,99534.25
2022-10-24T08:44:30.408Z,99556.78
2022-10-24T08:47:08.490Z,99553.44
2022-10-24T08:49:52.664Z,99539.91
2022-10-24T08:52:35.575Z,99550.66
2022-10-24T08:55:30.995Z,99558.09
2022-10-24T08:58:06.727Z,99564.25
2022-10-24T09:00:44.208Z,99539.22
2022-10-24T09:06:27.969Z,99544.16
2022-10-24T09:08:56.753Z,99569.00
2022-10-24T09:11:45.079Z,99594.31
2022-10-24T09:14:24.796Z,99589.59
2022-10-24T09:16:56.927Z,99565.78
2022-10-24T09:19:32.135Z,99573.69
2022-10-24T09:22:02.870Z,99592.97
2022-10-24T09:24:42.959Z,99578.66
2022-10-24T09:29:53.278Z,99594.03
2022-10-24T09:32:46.348Z,99610.50
2022-10-24T09:35:20.994Z,99609.09
2022-10-24T09:37:56.048Z,99573.56
2022-10-24T09:40:51.006Z,99616.28
2022-10-24T09:43:34.485Z,99575.25
2022-10-24T09:46:06.609Z,99620.41
2022-10-24T09:49:15.534Z,99621.41
2022-10-24T09:52:21.750Z,99617.69
2022-10-24T09:55:25.225Z,99594.66
2022-10-24T09:58:00.020Z,99612.59
2022-10-24T10:00:36.584Z,99577.91
2022-10-24T10:03:23.449Z,99615.97
2022-10-24T10:05:54.831Z,99595.59
2022-10-24T10:08:31.448Z,99589.53
2022-10-24T10:11:10.387Z,99626.13
2022-10-24T10:13:52.990Z,99627.38
2022-10-24T10:16:41.582Z,99602.16
2022-10-24T10:19:24.504Z,99630.97
2022-10-24T10:22:00.912Z,99614.72
2022-10-24T10:24:40.819Z,99634.34
2022-10-24T10:27:33.167Z,99646.28
2022-10-24T10:30:24.583Z,99610.97
2022-10-24T10:33:29.450Z,99626.41
2022-10-24T10:36:18.515Z,99633.31
2022-10-24T10:39:06.199Z,99620.06
2022-10-24T10:42:17.215Z,99633.56
2022-10-24T10:45:17.706Z,99643.78
2022-10-24T10:48:03.309Z,99631.47
2022-10-24T10:50:58.943Z,99651.63
2022-10-24T10:53:46.982Z,99632.09
2022-10-24T10:56:20.254Z,99656.59
2022-10-24T10:59:08.712Z,99624.06
2022-10-24T11:02:25.140Z,99646.00
2022-10-24T11:06:04.706Z,99651.75
2022-10-24T11:09:01.432Z,99649.41
2022-10-24T11:11:41.889Z,99633.44
2022-10-24T11:14:39.923Z,99637.28
2022-10-24T11:17:25.760Z,99628.50
2022-10-24T11:20:13.662Z,99642.44
2022-10-24T11:22:52.933Z,99645.22
2022-10-24T11:26:06.050Z,99644.09
2022-10-24T11:29:20.332Z,99651.75
2022-10-24T11:32:40.247Z,99653.88
2022-10-24T11:35:34.732Z,99660.44
2022-10-24T11:38:23.654Z,99692.00
2022-10-24T11:41:05.007Z,99682.56
2022-10-24T11:43:44.599Z,99670.88
2022-10-24T11:46:32.712Z,99641.44
2022-10-24T11:49:26.352Z,99655.06
2022-10-24T11:52:09.913Z,99685.88
2022-10-24T11:55:03.340Z,99694.66
2022-10-24T11:57:37.556Z,99681.00
2022-10-24T12:00:05.638Z,99639.69
2022-10-24T12:03:17.788Z,99683.09
2022-10-24T12:06:05.074Z,99653.69
2022-10-24T12:09:15.515Z,99688.91
2022-10-24T12:12:08.734Z,99690.06
2022-10-24T12:15:06.492Z,99687.94
2022-10-24T12:17:54.795Z,99701.81
2022-10-24T12:20:33.958Z,99703.34
2022-10-24T12:23:46.774Z,99675.88
2022-10-24T12:26:41.064Z,99707.81
2022-10-24T12:29:26.251Z,99694.91
2022-10-24T12:32:01.125Z,99688.06
2022-10-24T12:34:50.053Z,99725.28
2022-10-24T12:37:27.288Z,99738.19
2022-10-24T12:40:03.621Z,99723.41
2022-10-24T12:42:52.454Z,99746.78
2022-10-24T12:48:47.512Z,99733.50
2022-10-24T12:52:12.354Z,99742.97
2022-10-24T12:54:49.907Z,99743.47
2022-10-24T12:57:32.582Z,99746.72
2022-10-24T13:00:31.971Z,99728.31
2022-10-24T13:09:10.953Z,99767.03
2022-10-24T13:12:42.273Z,99769.38
2022-10-24T13:15:39.597Z,99769.47
2022-10-24T13:18:32.603Z,99782.72
2022-10-24T13:21:36.934Z,99781.16
2022-10-24T13:24:38.354Z,99752.13
2022-10-24T13:27:13.147Z,99780.81
2022-10-24T13:29:44.382Z,99776.78
2022-10-24T13:32:36.471Z,99765.22
2022-10-24T13:35:08.974Z,99800.00
2022-10-24T13:38:00.660Z,99770.44
2022-10-24T13:40:48.562Z,99786.72
2022-10-24T13:43:22.669Z,99770.25
2022-10-24T13:45:53.521Z,99794.84
2022-10-24T13:48:37.308Z,99790.84
2022-10-24T13:51:20.210Z,99805.34
2022-10-24T13:53:54.719Z,99805.41
2022-10-24T13:56:27.293Z,99819.22
2022-10-24T14:01:41.770Z,99785.94
2022-10-24T14:04:14.403Z,99803.25
2022-10-24T14:06:47.340Z,99782.56
2022-10-24T14:09:15.380Z,99795.59
2022-10-24T14:11:51.967Z,99786.63
2022-10-24T14:14:53.129Z,99820.97
2022-10-24T14:17:28.472Z,99829.91
2022-10-24T14:20:22.423Z,99814.28
2022-10-24T14:22:57.966Z,99807.25
2022-10-24T14:25:36.476Z,99847.31
2022-10-24T14:28:25.018Z,99850.06
2022-10-24T14:31:06.524Z,99864.13
2022-10-24T14:33:46.764Z,99836.78
2022-10-24T14:36:19.000Z,99852.13
2022-10-24T14:38:51.661Z,99846.53
2022-10-24T14:41:49.183Z,99863.31
2022-10-24T14:44:24.462Z,99873.19
2022-10-24T14:47:06.149Z,99872.44
2022-10-24T14:49:40.275Z,99850.09
2022-10-24T14:52:13.026Z,99865.22
2022-10-24T14:54:52.766Z,99886.66
2022-10-24T14:57:23.024Z,99870.09
2022-10-24T14:59:54.264Z,99881.38
2022-10-24T15:03:33.855Z,99892.91
2022-10-24T15:06:24.448Z,99861.91
2022-10-24T15:09:20.592Z,99864.88
2022-10-24T15:16:31.619Z,99920.91
2022-10-24T15:19:06.281Z,99921.78
2022-10-24T15:22:04.817Z,99919.38
2022-10-24T15:24:35.664Z,99923.16
2022-10-24T15:27:16.013Z,99915.63
2022-10-24T15:30:17.943Z,99914.94
2022-10-24T15:33:28.252Z,99933.38
2022-10-24T15:36:01.198Z,99945.03
2022-10-24T15:38:40.491Z,99920.47
2022-10-24T15:41:09.984Z,99942.53
2022-10-24T15:43:44.228Z,99914.00
2022-10-24T15:46:14.243Z,99952.91
2022-10-24T15:48:52.071Z,99951.69
2022-10-24T15:51:25.270Z,99981.28
2022-10-24T15:53:55.240Z,99959.72
2022-10-24T15:56:28.223Z,99916.56
2022-10-24T15:58:57.017Z,99907.38
2022-10-24T16:01:37.300Z,99951.69
2022-10-24T16:04:11.729Z,99916.56
2022-10-24T16:09:47.559Z,99937.47
2022-10-24T16:12:22.649Z,99962.94
2022-10-24T16:14:55.541Z,99915.31
2022-10-24T16:17:23.581Z,99967.03
2022-10-24T16:19:57.198Z,99934.94
2022-10-24T16:22:30.828Z,99954.28
2022-10-24T16:24:58.125Z,99946.88
2022-10-24T16:27:25.625Z,99958.28
2022-10-24T16:29:56.563Z,99949.94
2022-10-24T16:32:55.759Z,99967.16
2022-10-24T16:35:30.213Z,99948.44
2022-10-24T16:38:01.555Z,99972.13
2022-10-24T16:40:30.426Z,99933.06
2022-10-24T16:43:25.291Z,99994.34
2022-10-24T16:46:01.554Z,99976.78
2022-10-24T16:48:31.088Z,99982.16
2022-10-24T16:50:58.442Z,99987.25
2022-10-24T16:53:30.616Z,99974.69
2022-10-24T16:55:59.414Z,99969.50
2022-10-24T16:58:27.819Z,99972.97
2022-10-24T17:01:03.191Z,99999.59
2022-10-24T17:03:30.789Z,99962.78
2022-10-24T17:05:59.837Z,100000.38
2022-10-24T17:08:27.781Z,100020.88
2022-10-24T17:10:56.077Z,100019.75
2022-10-24T17:13:24.777Z,100000.28
2022-10-24T17:15:52.427Z,100023.97
2022-10-24T17:18:24.033Z,100031.00
2022-10-24T17:20:51.797Z,100030.28
2022-10-24T17:23:23.117Z,99997.44
2022-10-24T17:25:50.605Z,100036.03
2022-10-24T17:28:17.899Z,100051.88
2022-10-24T17:30:45.350Z,100041.66
2022-10-24T17:33:14.083Z,100046.75
2022-10-24T17:35:46.852Z,100046.00
2022-10-24T17:38:38.215Z,100041.75
2022-10-24T17:41:18.403Z,100032.72
2022-10-24T17:43:45.896Z,100026.97
2022-10-24T17:46:13.831Z,100018.06
2022-10-24T17:48:41.261Z,100012.97
2022-10-24T17:51:15.204Z,100025.09
2022-10-24T17:53:42.755Z,100043.97
2022-10-24T17:56:37.899Z,100024.69
2022-10-24T18:00:07.891Z,100008.59
2022-10-24T18:02:13.716Z,100013.72
2022-10-24T18:04:43.051Z,100042.91
2022-10-24T18:07:12.373Z,100047.22
2022-10-24T18:09:40.320Z,100040.53
2022-10-24T18:12:07.951Z,100034.91
2022-10-24T18:14:37.667Z,100044.25
2022-10-24T18:17:06.148Z,100041.72
2022-10-24T18:19:33.601Z,100034.09
2022-10-24T18:22:03.765Z,100061.78
2022-10-24T18:24:34.092Z,100054.66
2022-10-24T18:27:07.172Z,100065.81
2022-10-24T18:29:34.675Z,100043.88
2022-10-24T18:32:16.227Z,100068.75
2022-10-24T18:34:43.484Z,100079.34
2022-10-24T18:37:14.266Z,100062.28
2022-10-24T18:39:42.045Z,100073.03
2022-10-24T18:43:00.079Z,100080.41
2022-10-24T18:48:19.404Z,100076.44
2022-10-24T18:51:20.521Z,100044.94
2022-10-24T18:53:48.063Z,100096.34
2022-10-24T18:56:18.669Z,100104.41
2022-10-24T18:58:51.213Z,100043.78
2022-10-24T19:01:58.257Z,100098.34
2022-10-24T19:04:33.704Z,100055.84
2022-10-24T19:07:03.648Z,100102.13
2022-10-24T19:09:31.092Z,100097.66
2022-10-24T19:11:58.643Z,100103.94
2022-10-24T19:14:26.189Z,100100.59
2022-10-24T19:16:55.410Z,100079.84
2022-10-24T19:19:30.761Z,100094.63
2022-10-24T19:21:59.375Z,100090.84
2022-10-24T19:24:26.922Z,100073.56
2022-10-24T19:26:57.338Z,100119.69
2022-10-24T19:29:28.327Z,100136.72
2022-10-24T19:31:59.931Z,100086.25
2022-10-24T19:34:29.543Z,100124.44
2022-10-24T19:36:59.347Z,100112.84
2022-10-24T19:39:37.031Z,100085.47
2022-10-24T19:42:08.261Z,100122.31
2022-10-24T19:44:37.828Z,100141.91
2022-10-24T19:47:10.942Z,100085.38
2022-10-24T19:49:38.532Z,100112.84
2022-10-24T19:52:10.448Z,100109.53
2022-10-24T19:54:37.909Z,100084.78
2022-10-24T19:57:06.182Z,100131.88
2022-10-24T19:59:38.574Z,100096.03
2022-10-24T20:02:06.452Z,100114.06
2022-10-24T20:04:35.890Z,100114.34
2022-10-24T20:07:04.344Z,100123.50
2022-10-24T20:09:35.728Z,100127.09
2022-10-24T20:12:05.977Z,100119.31
2022-10-24T20:14:35.819Z,100137.91
2022-10-24T20:17:11.399Z,100124.50
2022-10-24T20:19:39.022Z,100100.84
2022-10-24T20:22:08.839Z,100147.78
2022-10-24T20:24:38.376Z,100154.56
2022-10-24T20:29:36.816Z,100131.50
2022-10-24T20:32:04.750Z,100126.38
2022-10-24T20:34:32.136Z,100119.72
2022-10-24T20:37:01.343Z,100154.44
2022-10-24T20:39:28.927Z,100147.44
2022-10-24T20:41:58.638Z,100141.72
2022-10-24T20:44:28.114Z,100170.00
2022-10-24T20:46:57.008Z,100148.97
2022-10-24T20:49:29.420Z,100130.66
2022-10-24T20:52:01.261Z,100123.81
2022-10-24T20:54:31.574Z,100153.47
2022-10-24T20:56:59.432Z,100133.97
2022-10-24T20:59:26.892Z,100148.97
2022-10-24T21:01:57.411Z,100146.72
2022-10-24T21:04:25.545Z,100163.88
2022-10-24T21:06:55.657Z,100155.50
2022-10-24T21:09:28.334Z,100159.22
2022-10-24T21:16:02.429Z,100143.41
2022-10-24T21:18:30.197Z,100174.00
2022-10-24T21:20:58.864Z,100162.16
2022-10-24T21:23:28.895Z,100149.56
2022-10-24T21:26:15.289Z,100141.97
2022-10-24T21:28:46.949Z,100184.56
2022-10-24T21:31:22.491Z,100163.38
2022-10-24T21:33:50.881Z,100164.38
2022-10-24T21:36:24.473Z,100186.53
2022-10-24T21:39:00.437Z,100168.81
2022-10-24T21:41:33.653Z,100161.13
2022-10-24T21:44:03.326Z,100158.44
2022-10-24T21:46:36.951Z,100162.91
2022-10-24T21:49:04.375Z,100193.56
2022-10-24T21:51:36.564Z,100184.44
2022-10-24T21:54:05.692Z,100212.53
2022-10-24T21:56:37.044Z,100168.28
2022-10-24T21:59:07.144Z,100195.81
2022-10-24T22:01:43.909Z,100171.09
2022-10-24T22:04:15.379Z,100231.97
2022-10-24T22:06:46.357Z,100212.16
2022-10-24T22:09:19.795Z,100204.56
2022-10-24T22:11:47.879Z,100228.56
2022-10-24T22:14:17.076Z,100177.44
2022-10-24T22:16:48.019Z,100205.66
2022-10-24T22:19:20.459Z,100226.44
2022-10-24T22:22:42.616Z,100231.38
2022-10-24T22:25:10.307Z,100227.19
2022-10-24T22:27:38.463Z,100200.97
2022-10-24T22:30:06.879Z,100222.28
2022-10-24T22:32:35.844Z,100205.38
2022-10-24T22:35:04.675Z,100245.72
2022-10-24T22:37:33.161Z,100226.03
2022-10-24T22:40:01.745Z,100233.19
2022-10-24T22:42:30.491Z,100211.72
2022-10-24T22:45:00.790Z,100212.91
2022-10-24T22:47:55.382Z,100256.56
2022-10-24T22:50:42.357Z,100235.25
2022-10-24T22:53:37.202Z,100237.63
2022-10-24T22:56:16.349Z,100233.41
2022-10-24T22:58:45.920Z,100247.31
2022-10-24T23:01:28.090Z,100215.81
2022-10-24T23:04:25.330Z,100238.91
2022-10-24T23:07:20.589Z,100240.66
2022-10-24T23:09:49.941Z,100259.44
2022-10-24T23:12:22.229Z,100261.31
2022-10-24T23:14:58.317Z,100233.28
2022-10-24T23:17:29.031Z,100257.16
2022-10-24T23:20:00.533Z,100253.56
2022-10-24T23:23:09.557Z,100258.66
2022-10-24T23:25:52.832Z,100225.53
2022-10-24T23:28:30.833Z,100226.41
2022-10-24T23:30:58.344Z,100251.22
2022-10-24T23:33:30.051Z,100278.50
2022-10-24T23:35:59.599Z,100261.34
2022-10-24T23:38:27.310Z,100230.56
2022-10-24T23:40:56.532Z,100249.59
2022-10-24T23:43:27.462Z,100230.75
2022-10-24T23:46:03.293Z,100262.97
2022-10-24T23:48:58.330Z,100258.66
2022-10-24T23:51:33.350Z,100224.66
2022-10-24T23:54:02.242Z,100215.19
2022-10-24T23:56:30.331Z,100226.28
2022-10-24T23:58:58.080Z,100254.78
